Time;durP1;ratioP1;P1;durP2;ratioP2;P2;SDS_P1;SDS_P2;PMS_P1;PMS_P2;Temp;Humidity;BMP_temperature;BMP_pressure;BME280_temperature;BME280_humidity;BME280_pressure;Samples;Min_cycle;Max_cycle;Signal;HPM_P1;HPM_P2
2023/06/08 00:00:05;;;;;;;21.58;7.20;;;;;;;;;;4963903;28;99252;-81
2023/06/08 00:02:37;;;;;;;26.48;7.35;;;;;;;;;;4960470;28;99434;-81
2023/06/08 00:05:04;;;;;;;19.52;7.15;;;;;;;;;;4962440;28;97866;-80
2023/06/08 00:07:34;;;;;;;25.30;8.07;;;;;;;;;;4968528;28;97905;-81
2023/06/08 00:10:01;;;;;;;18.63;6.70;;;;;;;;;;4964839;28;98191;-81
2023/06/08 00:12:29;;;;;;;21.08;7.32;;;;;;;;;;4964364;28;98336;-81
2023/06/08 00:14:56;;;;;;;22.17;7.53;;;;;;;;;;4964395;28;98493;-81
2023/06/08 00:17:24;;;;;;;18.15;5.70;;;;;;;;;;4964747;28;98913;-81
2023/06/08 00:19:52;;;;;;;24.70;7.85;;;;;;;;;;4963798;28;98507;-81
2023/06/08 00:22:21;;;;;;;16.42;6.78;;;;;;;;;;4963953;28;101167;-81
2023/06/08 00:24:48;;;;;;;15.38;6.45;;;;;;;;;;4963242;28;98943;-80
2023/06/08 00:27:14;;;;;;;21.90;7.07;;;;;;;;;;4953127;28;98461;-80
2023/06/08 00:29:41;;;;;;;17.38;6.55;;;;;;;;;;4969253;28;98162;-81
2023/06/08 00:32:07;;;;;;;16.73;7.13;;;;;;;;;;4964904;28;98507;-80
2023/06/08 00:34:35;;;;;;;19.70;6.68;;;;;;;;;;4964722;28;97924;-81
2023/06/08 00:37:01;;;;;;;28.30;7.05;;;;;;;;;;4966609;28;99296;-81
2023/06/08 00:39:30;;;;;;;19.83;7.85;;;;;;;;;;4964567;28;98459;-81
2023/06/08 00:41:57;;;;;;;17.27;6.57;;;;;;;;;;4965929;28;97690;-81
2023/06/08 00:44:23;;;;;;;26.33;7.55;;;;;;;;;;4964322;28;98354;-80
2023/06/08 00:46:50;;;;;;;20.50;7.22;;;;;;;;;;4965256;28;98431;-81
2023/06/08 00:49:18;;;;;;;20.33;6.80;;;;;;;;;;4945662;28;100335;-80
2023/06/08 00:51:44;;;;;;;16.70;6.93;;;;;;;;;;4961052;28;98311;-81
2023/06/08 00:54:12;;;;;;;17.33;6.88;;;;;;;;;;4970460;28;100102;-81
2023/06/08 00:56:39;;;;;;;15.88;6.57;;;;;;;;;;4961680;28;98118;-81
2023/06/08 00:59:05;;;;;;;16.05;6.78;;;;;;;;;;4949591;28;98668;-81
2023/06/08 01:01:35;;;;;;;22.67;7.35;;;;;;;;;;4954002;28;98814;-81
2023/06/08 01:04:05;;;;;;;21.90;6.88;;;;;;;;;;4955825;28;98225;-81
2023/06/08 01:06:36;;;;;;;19.52;7.00;;;;;;;;;;4942491;28;97761;-81
2023/06/08 01:09:27;;;;;;;18.02;7.28;;;;;;;;;;4959502;28;98245;-81
2023/06/08 01:11:56;;;;;;;21.27;8.13;;;;;;;;;;4958711;28;102616;-81
2023/06/08 01:14:24;;;;;;;26.63;8.35;;;;;;;;;;4957615;28;99734;-80
2023/06/08 01:16:51;;;;;;;21.70;6.97;;;;;;;;;;4946428;28;98085;-81
2023/06/08 01:19:24;;;;;;;16.48;7.60;;;;;;;;;;4947760;28;97730;-81
2023/06/08 01:22:07;;;;;;;25.45;7.47;;;;;;;;;;4947571;28;97952;-80
2023/06/08 01:24:36;;;;;;;19.05;7.10;;;;;;;;;;4953201;28;98284;-81
2023/06/08 01:27:07;;;;;;;22.85;7.05;;;;;;;;;;4965047;28;98245;-81
2023/06/08 01:29:34;;;;;;;17.80;6.30;;;;;;;;;;4946690;28;100492;-81
2023/06/08 01:32:00;;;;;;;21.50;7.75;;;;;;;;;;4957698;28;101475;-81
2023/06/08 01:34:27;;;;;;;17.20;7.63;;;;;;;;;;4964732;28;98254;-80
2023/06/08 01:37:03;;;;;;;18.90;7.75;;;;;;;;;;4963579;28;98320;-80
2023/06/08 01:39:36;;;;;;;20.60;7.38;;;;;;;;;;4964330;28;99643;-81
2023/06/08 01:42:05;;;;;;;19.38;7.90;;;;;;;;;;4946585;28;100453;-81
2023/06/08 01:44:37;;;;;;;18.00;7.03;;;;;;;;;;4961549;28;100763;-81
2023/06/08 01:47:05;;;;;;;18.08;7.60;;;;;;;;;;4964282;28;98408;-81
2023/06/08 01:49:32;;;;;;;16.23;7.22;;;;;;;;;;4963405;28;98158;-80
2023/06/08 01:51:59;;;;;;;19.60;7.35;;;;;;;;;;4967223;28;98451;-81
2023/06/08 01:54:25;;;;;;;12.98;6.90;;;;;;;;;;4962771;28;98397;-81
2023/06/08 01:56:52;;;;;;;22.35;7.20;;;;;;;;;;4965703;28;98104;-81
2023/06/08 01:59:18;;;;;;;14.65;6.65;;;;;;;;;;4962519;28;100287;-80
2023/06/08 02:01:45;;;;;;;14.27;7.38;;;;;;;;;;4968007;28;100464;-80
2023/06/08 02:04:12;;;;;;;15.30;7.53;;;;;;;;;;4970923;28;99049;-80
2023/06/08 02:06:41;;;;;;;16.42;7.88;;;;;;;;;;4963171;28;98138;-80
2023/06/08 02:09:07;;;;;;;23.60;8.85;;;;;;;;;;4963252;28;98216;-81
2023/06/08 02:11:34;;;;;;;24.63;8.40;;;;;;;;;;4960182;28;98430;-80
2023/06/08 02:14:00;;;;;;;17.73;7.88;;;;;;;;;;4960516;28;98475;-80
2023/06/08 02:16:27;;;;;;;17.55;7.97;;;;;;;;;;4974049;28;98185;-80
2023/06/08 02:18:54;;;;;;;23.27;8.45;;;;;;;;;;4965806;28;99314;-80
2023/06/08 02:21:20;;;;;;;19.58;7.68;;;;;;;;;;4938936;28;100073;-80
2023/06/08 02:23:47;;;;;;;18.40;9.13;;;;;;;;;;4954586;28;100088;-81
2023/06/08 02:26:16;;;;;;;21.02;8.93;;;;;;;;;;4962863;28;98431;-79
2023/06/08 02:28:43;;;;;;;21.27;8.13;;;;;;;;;;4964264;28;99253;-80
2023/06/08 02:31:11;;;;;;;19.50;8.27;;;;;;;;;;4965121;28;98254;-80
2023/06/08 02:33:38;;;;;;;23.52;10.02;;;;;;;;;;4954127;28;97845;-80
2023/06/08 02:36:06;;;;;;;26.50;9.02;;;;;;;;;;4964762;28;98185;-80
2023/06/08 02:38:33;;;;;;;18.25;8.93;;;;;;;;;;4946331;28;98431;-80
2023/06/08 02:41:00;;;;;;;18.70;9.73;;;;;;;;;;4938918;28;98427;-79
2023/06/08 02:43:28;;;;;;;16.92;8.80;;;;;;;;;;4943651;28;99991;-80
2023/06/08 02:45:54;;;;;;;33.75;10.32;;;;;;;;;;4957857;28;99664;-80
2023/06/08 02:48:24;;;;;;;24.80;9.77;;;;;;;;;;4952204;28;98533;-80
2023/06/08 02:50:51;;;;;;;16.98;9.40;;;;;;;;;;4958449;28;100587;-79
2023/06/08 02:53:17;;;;;;;22.75;9.40;;;;;;;;;;4950007;28;99287;-80
2023/06/08 02:55:44;;;;;;;24.83;9.93;;;;;;;;;;4963594;28;98925;-80
2023/06/08 02:58:17;;;;;;;21.45;9.80;;;;;;;;;;4958823;28;100529;-80
2023/06/08 03:00:44;;;;;;;18.42;9.65;;;;;;;;;;4968245;28;98646;-80
2023/06/08 03:03:23;;;;;;;15.20;9.30;;;;;;;;;;4945617;28;98445;-80
2023/06/08 03:05:58;;;;;;;16.52;9.93;;;;;;;;;;4953300;28;98649;-80
2023/06/08 03:08:30;;;;;;;24.13;11.10;;;;;;;;;;4961919;28;98568;-80
2023/06/08 03:10:57;;;;;;;16.25;9.95;;;;;;;;;;4949310;28;99308;-79
2023/06/08 03:13:25;;;;;;;16.60;9.43;;;;;;;;;;4961511;28;98396;-80
2023/06/08 03:15:52;;;;;;;21.83;10.13;;;;;;;;;;4951925;28;98384;-80
2023/06/08 03:18:19;;;;;;;20.55;10.50;;;;;;;;;;4958193;28;101637;-80
2023/06/08 03:20:47;;;;;;;22.17;11.65;;;;;;;;;;4951012;28;98510;-80
2023/06/08 03:23:17;;;;;;;20.17;11.40;;;;;;;;;;4956863;28;98533;-79
2023/06/08 03:25:49;;;;;;;19.70;11.18;;;;;;;;;;4948238;28;100805;-81
2023/06/08 03:28:19;;;;;;;18.80;10.70;;;;;;;;;;4961417;28;98723;-80
2023/06/08 03:30:46;;;;;;;19.30;11.50;;;;;;;;;;4944030;28;100921;-79
2023/06/08 03:33:16;;;;;;;21.17;11.88;;;;;;;;;;4945091;28;98480;-79
2023/06/08 03:35:49;;;;;;;16.98;11.20;;;;;;;;;;4962254;28;101138;-79
2023/06/08 03:38:21;;;;;;;26.05;13.10;;;;;;;;;;4963535;28;101387;-80
2023/06/08 03:40:50;;;;;;;24.40;10.88;;;;;;;;;;4946895;28;98033;-80
2023/06/08 03:43:19;;;;;;;20.77;11.48;;;;;;;;;;4965262;28;99775;-80
2023/06/08 03:45:47;;;;;;;27.10;11.50;;;;;;;;;;4953404;28;101418;-79
2023/06/08 03:48:14;;;;;;;24.35;12.60;;;;;;;;;;4965085;28;101032;-80
2023/06/08 03:50:43;;;;;;;27.33;12.25;;;;;;;;;;4964912;28;100993;-80
2023/06/08 03:53:11;;;;;;;21.20;11.55;;;;;;;;;;4966454;28;98464;-80
2023/06/08 03:55:38;;;;;;;25.05;11.45;;;;;;;;;;4964053;28;98300;-79
2023/06/08 03:58:05;;;;;;;21.73;11.27;;;;;;;;;;4944190;28;99606;-80
2023/06/08 04:00:32;;;;;;;26.98;12.85;;;;;;;;;;4958657;28;97718;-80
2023/06/08 04:03:00;;;;;;;25.13;13.13;;;;;;;;;;4950405;28;99537;-80
2023/06/08 04:05:27;;;;;;;20.70;11.80;;;;;;;;;;4964541;28;99188;-80
2023/06/08 04:07:55;;;;;;;23.83;14.35;;;;;;;;;;4967264;28;99954;-80
2023/06/08 04:10:23;;;;;;;27.50;13.20;;;;;;;;;;4941807;28;98618;-80
2023/06/08 04:12:51;;;;;;;25.92;13.90;;;;;;;;;;4950603;28;98433;-80
2023/06/08 04:15:17;;;;;;;24.88;15.18;;;;;;;;;;4949450;28;99061;-79
2023/06/08 04:17:46;;;;;;;25.70;14.55;;;;;;;;;;4950856;28;99219;-80
2023/06/08 04:20:17;;;;;;;28.92;14.45;;;;;;;;;;4962452;28;98492;-80
2023/06/08 04:22:44;;;;;;;24.35;13.95;;;;;;;;;;4948593;28;100156;-80
2023/06/08 04:25:13;;;;;;;28.08;13.48;;;;;;;;;;4958786;28;97899;-80
2023/06/08 04:27:41;;;;;;;23.83;14.25;;;;;;;;;;4965006;28;97652;-80
2023/06/08 04:30:08;;;;;;;25.77;14.73;;;;;;;;;;4961002;28;98270;-80
2023/06/08 04:32:35;;;;;;;31.00;15.07;;;;;;;;;;4964471;28;99172;-80
2023/06/08 04:35:03;;;;;;;26.50;15.30;;;;;;;;;;4958377;28;98574;-80
2023/06/08 04:37:33;;;;;;;29.80;15.45;;;;;;;;;;4958664;28;98443;-80
2023/06/08 04:40:01;;;;;;;25.83;14.35;;;;;;;;;;4964869;28;98606;-80
2023/06/08 04:42:32;;;;;;;25.45;13.48;;;;;;;;;;4949371;28;100263;-80
2023/06/08 04:45:03;;;;;;;27.98;15.75;;;;;;;;;;4962615;28;100733;-80
2023/06/08 04:47:31;;;;;;;25.23;15.60;;;;;;;;;;4961903;28;98004;-80
2023/06/08 04:49:58;;;;;;;32.65;16.30;;;;;;;;;;4962483;28;101915;-79
2023/06/08 04:52:26;;;;;;;31.08;15.10;;;;;;;;;;4967547;28;100296;-80
2023/06/08 04:54:52;;;;;;;31.48;16.60;;;;;;;;;;4970804;28;98548;-80
2023/06/08 04:57:22;;;;;;;26.67;14.70;;;;;;;;;;4961897;28;101759;-80
2023/06/08 04:59:49;;;;;;;23.50;14.15;;;;;;;;;;4959061;28;98459;-80
2023/06/08 05:02:15;;;;;;;25.48;15.20;;;;;;;;;;4948233;28;101549;-80
2023/06/08 05:04:42;;;;;;;26.60;15.23;;;;;;;;;;4961231;28;101548;-80
2023/06/08 05:07:09;;;;;;;25.52;15.05;;;;;;;;;;4952400;28;98878;-79
2023/06/08 05:09:36;;;;;;;24.05;14.10;;;;;;;;;;4959218;28;100523;-79
2023/06/08 05:12:06;;;;;;;25.38;14.65;;;;;;;;;;4955024;28;98574;-80
2023/06/08 05:14:32;;;;;;;22.30;15.60;;;;;;;;;;4956670;28;97823;-79
2023/06/08 05:16:59;;;;;;;25.10;15.63;;;;;;;;;;4960661;28;102009;-79
2023/06/08 05:19:26;;;;;;;26.85;14.95;;;;;;;;;;4956015;28;98203;-79
2023/06/08 05:21:52;;;;;;;26.95;13.63;;;;;;;;;;4946250;28;99192;-79
2023/06/08 05:24:19;;;;;;;22.30;12.50;;;;;;;;;;4953537;28;98575;-80
2023/06/08 05:26:45;;;;;;;23.83;14.65;;;;;;;;;;4962541;28;98568;-80
2023/06/08 05:29:12;;;;;;;28.73;12.73;;;;;;;;;;4951413;28;99119;-80
2023/06/08 05:31:39;;;;;;;20.45;12.75;;;;;;;;;;4956996;28;99242;-81
2023/06/08 05:34:05;;;;;;;21.13;13.75;;;;;;;;;;4953901;28;98548;-80
2023/06/08 05:36:33;;;;;;;17.58;12.25;;;;;;;;;;4955968;28;98338;-80
2023/06/08 05:39:03;;;;;;;27.95;13.75;;;;;;;;;;4960032;28;97180;-80
2023/06/08 05:41:30;;;;;;;22.35;13.00;;;;;;;;;;4951557;28;99666;-79
2023/06/08 05:43:56;;;;;;;19.75;12.63;;;;;;;;;;4960869;28;98476;-79
2023/06/08 05:46:23;;;;;;;30.52;12.88;;;;;;;;;;4958094;28;99042;-79
2023/06/08 05:48:50;;;;;;;27.77;13.43;;;;;;;;;;4948388;28;98505;-80
2023/06/08 05:51:16;;;;;;;25.73;14.15;;;;;;;;;;4955493;28;99374;-80
2023/06/08 05:53:43;;;;;;;23.23;12.63;;;;;;;;;;4958001;28;98942;-80
2023/06/08 05:56:10;;;;;;;21.27;11.50;;;;;;;;;;4964765;28;98983;-80
2023/06/08 05:58:37;;;;;;;28.58;12.63;;;;;;;;;;4959308;28;98746;-79
2023/06/08 06:01:15;;;;;;;26.33;12.38;;;;;;;;;;4956497;28;98249;-80
2023/06/08 06:03:42;;;;;;;20.63;12.90;;;;;;;;;;4944316;28;97875;-80
2023/06/08 06:06:10;;;;;;;19.33;12.30;;;;;;;;;;4940345;28;98309;-79
2023/06/08 06:08:38;;;;;;;26.85;13.88;;;;;;;;;;4949935;28;98035;-80
2023/06/08 06:11:08;;;;;;;23.23;12.90;;;;;;;;;;4949035;28;99933;-79
2023/06/08 06:13:36;;;;;;;24.60;12.13;;;;;;;;;;4957878;28;98580;-79
2023/06/08 06:16:03;;;;;;;21.30;12.05;;;;;;;;;;4954672;28;98614;-79
2023/06/08 06:18:29;;;;;;;21.25;11.98;;;;;;;;;;4943988;28;98635;-80
2023/06/08 06:20:56;;;;;;;27.33;13.15;;;;;;;;;;4942996;28;98522;-79
2023/06/08 06:23:23;;;;;;;27.35;12.85;;;;;;;;;;4940102;28;100331;-79
2023/06/08 06:25:51;;;;;;;24.15;12.63;;;;;;;;;;4953141;28;98480;-79
2023/06/08 06:28:17;;;;;;;31.13;13.68;;;;;;;;;;4953835;28;100880;-80
2023/06/08 06:30:44;;;;;;;20.00;11.55;;;;;;;;;;4946035;28;98432;-79
2023/06/08 06:33:10;;;;;;;17.15;10.88;;;;;;;;;;4943416;28;97976;-79
2023/06/08 06:35:37;;;;;;;26.80;11.25;;;;;;;;;;4952852;28;99443;-79
2023/06/08 06:38:03;;;;;;;20.73;12.15;;;;;;;;;;4939973;28;99388;-80
2023/06/08 06:40:29;;;;;;;20.92;11.77;;;;;;;;;;4956611;28;98519;-79
2023/06/08 06:42:56;;;;;;;23.42;11.48;;;;;;;;;;4949224;28;98392;-79
2023/06/08 06:45:32;;;;;;;25.25;12.35;;;;;;;;;;4943654;28;99230;-80
2023/06/08 06:47:58;;;;;;;29.33;12.00;;;;;;;;;;4960686;28;98431;-79
2023/06/08 06:50:25;;;;;;;26.90;12.20;;;;;;;;;;4957495;28;101172;-79
2023/06/08 06:52:52;;;;;;;21.08;11.13;;;;;;;;;;4949764;28;98060;-80
2023/06/08 06:55:18;;;;;;;16.70;10.40;;;;;;;;;;4944662;28;99037;-80
2023/06/08 06:57:45;;;;;;;24.35;11.70;;;;;;;;;;4961217;28;98284;-80
2023/06/08 07:00:12;;;;;;;23.40;11.75;;;;;;;;;;4959405;28;99202;-79
2023/06/08 07:02:40;;;;;;;21.13;11.20;;;;;;;;;;4953182;28;98433;-80
2023/06/08 07:05:07;;;;;;;22.20;10.77;;;;;;;;;;4967139;28;98592;-80
2023/06/08 07:07:34;;;;;;;21.98;11.35;;;;;;;;;;4932437;28;100677;-80
2023/06/08 07:10:00;;;;;;;20.48;10.93;;;;;;;;;;4955735;28;98153;-80
2023/06/08 07:12:28;;;;;;;38.58;13.32;;;;;;;;;;4954812;28;98528;-80
2023/06/08 07:14:54;;;;;;;22.23;11.60;;;;;;;;;;4962923;28;98670;-81
2023/06/08 07:17:21;;;;;;;19.25;10.88;;;;;;;;;;4953470;28;99320;-80
2023/06/08 07:19:48;;;;;;;24.52;12.23;;;;;;;;;;4951328;28;98479;-80
2023/06/08 07:22:15;;;;;;;24.30;10.88;;;;;;;;;;4954153;28;98147;-80
2023/06/08 07:25:02;;;;;;;20.67;10.82;;;;;;;;;;4956905;28;99540;-80
2023/06/08 07:27:49;;;;;;;25.15;11.77;;;;;;;;;;4955583;28;98662;-79
2023/06/08 07:30:15;;;;;;;18.52;9.57;;;;;;;;;;4959739;28;98151;-80
2023/06/08 07:32:43;;;;;;;24.75;10.07;;;;;;;;;;4963422;28;98731;-80
2023/06/08 07:35:10;;;;;;;18.42;10.90;;;;;;;;;;4949459;28;99536;-80
2023/06/08 07:37:36;;;;;;;20.58;10.88;;;;;;;;;;4959506;28;99788;-79
2023/06/08 07:40:07;;;;;;;17.90;10.30;;;;;;;;;;4960183;28;98471;-80
2023/06/08 07:42:34;;;;;;;20.55;9.82;;;;;;;;;;4947596;28;97680;-80
2023/06/08 07:45:01;;;;;;;18.98;10.45;;;;;;;;;;4960549;28;99206;-79
2023/06/08 07:47:27;;;;;;;25.50;10.30;;;;;;;;;;4948786;28;98429;-80
2023/06/08 07:49:55;;;;;;;26.08;9.98;;;;;;;;;;4939309;28;102005;-81
2023/06/08 07:52:22;;;;;;;25.65;11.40;;;;;;;;;;4954226;28;98571;-79
2023/06/08 07:54:48;;;;;;;20.42;9.95;;;;;;;;;;4950407;28;98279;-80
2023/06/08 07:57:15;;;;;;;17.67;9.07;;;;;;;;;;4962771;28;98227;-80
2023/06/08 07:59:42;;;;;;;21.75;9.77;;;;;;;;;;4958326;28;98477;-80
2023/06/08 08:02:09;;;;;;;21.98;10.07;;;;;;;;;;4960319;28;98450;-80
2023/06/08 08:04:36;;;;;;;19.83;10.07;;;;;;;;;;4942889;28;98391;-80
2023/06/08 08:07:04;;;;;;;14.75;9.52;;;;;;;;;;4945174;28;97960;-79
2023/06/08 08:09:33;;;;;;;15.45;9.20;;;;;;;;;;4952754;28;98483;-79
2023/06/08 08:11:59;;;;;;;29.35;10.82;;;;;;;;;;4938732;28;98509;-79
2023/06/08 08:14:26;;;;;;;14.20;9.00;;;;;;;;;;4943573;28;99284;-79
2023/06/08 08:16:52;;;;;;;28.50;9.95;;;;;;;;;;4939816;28;99262;-79
2023/06/08 08:19:19;;;;;;;16.38;9.82;;;;;;;;;;4947727;28;98440;-80
2023/06/08 08:21:46;;;;;;;21.85;9.50;;;;;;;;;;4946616;28;98844;-79
2023/06/08 08:24:12;;;;;;;16.23;8.98;;;;;;;;;;4946300;28;98510;-80
2023/06/08 08:26:40;;;;;;;22.13;9.60;;;;;;;;;;4945316;28;98610;-80
2023/06/08 08:29:07;;;;;;;22.42;10.13;;;;;;;;;;4942358;28;98555;-79
2023/06/08 08:31:34;;;;;;;22.83;10.40;;;;;;;;;;4954815;28;97975;-80
2023/06/08 08:34:00;;;;;;;17.35;9.75;;;;;;;;;;4956153;28;98510;-80
2023/06/08 08:36:27;;;;;;;17.75;9.95;;;;;;;;;;4944832;28;98507;-79
2023/06/08 08:38:53;;;;;;;19.88;10.95;;;;;;;;;;4934464;28;99268;-80
2023/06/08 08:41:20;;;;;;;36.72;11.55;;;;;;;;;;4948698;28;100737;-79
2023/06/08 08:43:47;;;;;;;23.55;11.00;;;;;;;;;;4951653;28;99479;-80
2023/06/08 08:46:14;;;;;;;20.58;10.32;;;;;;;;;;4947656;28;98493;-79
2023/06/08 08:48:42;;;;;;;19.70;10.10;;;;;;;;;;4952254;28;99147;-80
2023/06/08 08:51:19;;;;;;;23.15;10.63;;;;;;;;;;4951822;28;98294;-80
2023/06/08 08:53:47;;;;;;;18.45;9.90;;;;;;;;;;4965244;28;98546;-80
2023/06/08 08:56:21;;;;;;;21.25;11.00;;;;;;;;;;4944084;28;99459;-80
2023/06/08 08:58:52;;;;;;;29.85;10.25;;;;;;;;;;4954050;28;98995;-80
2023/06/08 09:01:19;;;;;;;22.45;9.82;;;;;;;;;;4944006;28;98811;-80
2023/06/08 09:03:46;;;;;;;17.02;9.32;;;;;;;;;;4955913;28;99994;-80
2023/06/08 09:06:13;;;;;;;20.85;9.65;;;;;;;;;;4956775;28;98317;-79
2023/06/08 09:08:39;;;;;;;16.77;9.55;;;;;;;;;;4947758;28;99291;-80
2023/06/08 09:11:09;;;;;;;24.67;9.95;;;;;;;;;;4956089;28;98333;-81
2023/06/08 09:13:38;;;;;;;25.05;10.15;;;;;;;;;;4955981;28;97925;-81
2023/06/08 09:16:19;;;;;;;25.90;9.02;;;;;;;;;;4952642;28;100318;-81
2023/06/08 09:18:47;;;;;;;19.77;10.10;;;;;;;;;;4948152;28;98527;-80
2023/06/08 09:21:21;;;;;;;28.65;9.68;;;;;;;;;;4948713;28;100373;-80
2023/06/08 09:24:05;;;;;;;21.63;10.25;;;;;;;;;;4957744;28;98505;-80
2023/06/08 09:26:45;;;;;;;21.50;9.77;;;;;;;;;;4961399;28;99142;-80
2023/06/08 09:29:34;;;;;;;30.23;9.30;;;;;;;;;;4952528;28;100045;-80
2023/06/08 09:32:01;;;;;;;19.13;8.85;;;;;;;;;;4951755;28;98991;-79
2023/06/08 09:34:30;;;;;;;22.33;9.43;;;;;;;;;;4928832;28;98459;-80
2023/06/08 09:37:07;;;;;;;22.63;9.65;;;;;;;;;;4957833;28;98199;-80
2023/06/08 09:39:44;;;;;;;20.58;9.88;;;;;;;;;;4948870;28;98418;-80
2023/06/08 09:42:11;;;;;;;18.63;9.38;;;;;;;;;;4947264;28;98454;-80
2023/06/08 09:44:38;;;;;;;28.38;10.05;;;;;;;;;;4955326;28;98517;-80
2023/06/08 09:47:25;;;;;;;22.02;9.07;;;;;;;;;;4944954;28;97290;-80
2023/06/08 09:49:53;;;;;;;19.73;8.68;;;;;;;;;;4955836;28;98115;-80
2023/06/08 09:52:21;;;;;;;22.90;9.30;;;;;;;;;;4953225;28;100429;-80
2023/06/08 09:54:48;;;;;;;23.75;9.77;;;;;;;;;;4958822;28;99255;-79
2023/06/08 09:57:15;;;;;;;22.75;9.55;;;;;;;;;;4944034;28;98462;-80
2023/06/08 09:59:45;;;;;;;25.23;10.27;;;;;;;;;;4954453;28;98555;-80
2023/06/08 10:02:16;;;;;;;20.08;8.75;;;;;;;;;;4951464;28;98464;-80
2023/06/08 10:04:45;;;;;;;16.38;7.82;;;;;;;;;;4932496;28;100231;-81
2023/06/08 10:07:14;;;;;;;30.52;10.18;;;;;;;;;;4943167;28;98314;-79
2023/06/08 10:09:42;;;;;;;20.42;9.38;;;;;;;;;;4939920;28;98964;-79
2023/06/08 10:12:12;;;;;;;14.65;7.65;;;;;;;;;;4942936;28;98750;-79
2023/06/08 10:14:39;;;;;;;17.70;9.32;;;;;;;;;;4950833;28;98384;-80
2023/06/08 10:17:06;;;;;;;22.27;9.07;;;;;;;;;;4937876;28;98201;-80
2023/06/08 10:19:35;;;;;;;21.67;8.10;;;;;;;;;;4941470;28;99097;-79
2023/06/08 10:22:02;;;;;;;23.98;8.82;;;;;;;;;;4955198;28;99708;-80
2023/06/08 10:24:30;;;;;;;19.77;8.20;;;;;;;;;;4926579;28;100310;-80
2023/06/08 10:27:10;;;;;;;28.27;8.88;;;;;;;;;;4946838;28;98422;-80
2023/06/08 10:29:37;;;;;;;17.95;8.55;;;;;;;;;;4954177;28;99002;-80
2023/06/08 10:32:14;;;;;;;15.13;7.90;;;;;;;;;;4946604;28;98824;-80
2023/06/08 10:34:42;;;;;;;16.77;7.72;;;;;;;;;;4955351;28;98487;-80
2023/06/08 10:37:25;;;;;;;16.50;7.95;;;;;;;;;;4944602;28;98264;-80
2023/06/08 10:39:51;;;;;;;17.02;8.10;;;;;;;;;;4953608;28;99096;-80
2023/06/08 10:42:20;;;;;;;19.25;8.18;;;;;;;;;;4956218;28;98240;-79
2023/06/08 10:44:56;;;;;;;16.83;7.47;;;;;;;;;;4957825;28;99954;-80
2023/06/08 10:47:24;;;;;;;16.05;7.65;;;;;;;;;;4948277;28;98788;-80
2023/06/08 10:50:01;;;;;;;18.42;7.50;;;;;;;;;;4933667;28;98799;-80
2023/06/08 10:52:29;;;;;;;15.75;8.20;;;;;;;;;;4935102;28;98661;-80
2023/06/08 10:55:11;;;;;;;13.68;7.38;;;;;;;;;;4946407;28;98472;-81
2023/06/08 10:57:40;;;;;;;17.60;7.28;;;;;;;;;;4952252;28;98472;-80
2023/06/08 11:00:23;;;;;;;17.10;7.70;;;;;;;;;;4946058;28;98591;-79
2023/06/08 11:02:49;;;;;;;12.98;6.47;;;;;;;;;;4933161;28;97699;-78
2023/06/08 11:05:16;;;;;;;12.63;6.72;;;;;;;;;;4950927;28;98381;-80
2023/06/08 11:07:43;;;;;;;14.38;7.20;;;;;;;;;;4953481;28;98167;-80
2023/06/08 11:10:10;;;;;;;18.48;6.82;;;;;;;;;;4947521;28;99295;-81
2023/06/08 11:12:36;;;;;;;14.68;6.32;;;;;;;;;;4947802;28;99309;-80
2023/06/08 11:15:03;;;;;;;19.95;7.10;;;;;;;;;;4952911;28;98522;-81
2023/06/08 11:17:34;;;;;;;17.83;7.30;;;;;;;;;;4947182;28;97602;-80
2023/06/08 11:20:07;;;;;;;20.65;6.72;;;;;;;;;;4941691;28;98288;-81
2023/06/08 11:22:37;;;;;;;16.63;6.43;;;;;;;;;;4955694;28;99354;-81
2023/06/08 11:25:04;;;;;;;15.90;7.68;;;;;;;;;;4956059;28;98364;-80
2023/06/08 11:27:31;;;;;;;14.85;7.70;;;;;;;;;;4958526;28;99837;-80
2023/06/08 11:29:57;;;;;;;13.35;6.82;;;;;;;;;;4954099;28;98387;-81
2023/06/08 11:32:25;;;;;;;12.70;5.80;;;;;;;;;;4945074;28;98595;-81
2023/06/08 11:34:52;;;;;;;24.77;7.13;;;;;;;;;;4951579;28;99087;-81
2023/06/08 11:37:19;;;;;;;16.42;6.70;;;;;;;;;;4944752;28;98781;-81
2023/06/08 11:39:46;;;;;;;18.65;6.28;;;;;;;;;;4957896;28;98255;-81
2023/06/08 11:42:13;;;;;;;21.35;7.57;;;;;;;;;;4957769;28;98376;-81
2023/06/08 11:44:40;;;;;;;14.75;6.40;;;;;;;;;;4950941;28;98634;-81
2023/06/08 11:47:09;;;;;;;15.00;7.07;;;;;;;;;;4980195;28;98053;-81
2023/06/08 11:49:57;;;;;;;14.35;5.47;;;;;;;;;;4960550;28;98410;-80
2023/06/08 11:52:24;;;;;;;17.25;6.10;;;;;;;;;;4961958;28;97682;-81
2023/06/08 11:54:52;;;;;;;15.10;5.90;;;;;;;;;;4950555;28;98468;-81
2023/06/08 11:57:19;;;;;;;16.67;5.70;;;;;;;;;;4962581;28;98153;-82
2023/06/08 11:59:45;;;;;;;10.95;5.00;;;;;;;;;;4963825;28;99205;-81
2023/06/08 12:02:12;;;;;;;13.98;6.05;;;;;;;;;;4950991;28;97742;-81
2023/06/08 12:04:40;;;;;;;17.98;6.00;;;;;;;;;;4952180;28;98476;-81
2023/06/08 12:07:10;;;;;;;12.45;5.63;;;;;;;;;;4961084;28;98436;-81
2023/06/08 12:09:37;;;;;;;21.65;6.43;;;;;;;;;;4962205;28;98441;-82
2023/06/08 12:12:08;;;;;;;15.48;5.47;;;;;;;;;;4963530;28;98423;-83
2023/06/08 12:14:35;;;;;;;12.95;5.43;;;;;;;;;;4964516;28;99371;-82
2023/06/08 12:17:05;;;;;;;7.88;4.53;;;;;;;;;;4964335;28;97768;-82
2023/06/08 12:19:32;;;;;;;10.60;4.68;;;;;;;;;;4964889;28;99241;-83
2023/06/08 12:21:58;;;;;;;17.10;5.03;;;;;;;;;;4964452;28;98349;-82
2023/06/08 12:24:25;;;;;;;14.10;4.82;;;;;;;;;;4962410;28;99121;-82
2023/06/08 12:26:52;;;;;;;11.65;5.28;;;;;;;;;;4963299;28;98298;-83
2023/06/08 12:29:18;;;;;;;13.48;4.95;;;;;;;;;;4961272;28;98493;-82
2023/06/08 12:31:48;;;;;;;17.75;5.70;;;;;;;;;;4958160;28;98270;-81
2023/06/08 12:34:15;;;;;;;16.42;5.28;;;;;;;;;;4961724;28;97678;-81
2023/06/08 12:36:42;;;;;;;10.88;4.50;;;;;;;;;;4964679;28;97824;-81
2023/06/08 12:39:08;;;;;;;15.70;5.15;;;;;;;;;;4972202;28;99279;-80
2023/06/08 12:41:35;;;;;;;14.48;5.15;;;;;;;;;;4964409;28;97377;-81
2023/06/08 12:44:02;;;;;;;11.43;4.57;;;;;;;;;;4960338;28;98288;-81
2023/06/08 12:46:29;;;;;;;10.48;4.72;;;;;;;;;;4954980;28;98672;-80
2023/06/08 12:48:58;;;;;;;13.27;4.63;;;;;;;;;;4933146;28;98942;-81
2023/06/08 12:51:24;;;;;;;14.82;5.10;;;;;;;;;;4965048;28;98464;-81
2023/06/08 12:53:51;;;;;;;12.20;5.07;;;;;;;;;;4965949;28;98462;-81
2023/06/08 12:56:17;;;;;;;8.05;4.53;;;;;;;;;;4952772;28;98243;-80
2023/06/08 12:58:44;;;;;;;13.10;4.55;;;;;;;;;;4981660;28;98018;-80
2023/06/08 13:01:10;;;;;;;9.35;4.75;;;;;;;;;;4955408;28;98601;-80
2023/06/08 13:03:39;;;;;;;10.82;4.85;;;;;;;;;;4970461;28;98846;-80
2023/06/08 13:06:06;;;;;;;14.75;4.50;;;;;;;;;;4968006;28;97379;-81
2023/06/08 13:08:32;;;;;;;16.42;5.15;;;;;;;;;;4965437;28;98187;-81
2023/06/08 13:11:01;;;;;;;13.93;4.50;;;;;;;;;;4964796;28;98138;-81
2023/06/08 13:13:27;;;;;;;7.70;4.55;;;;;;;;;;4962348;28;100671;-80
2023/06/08 13:15:55;;;;;;;13.75;4.45;;;;;;;;;;4967187;28;98184;-81
2023/06/08 13:18:21;;;;;;;15.38;4.38;;;;;;;;;;4952907;28;101192;-81
2023/06/08 13:20:48;;;;;;;16.83;4.72;;;;;;;;;;4971677;28;98579;-81
2023/06/08 13:23:15;;;;;;;10.30;4.47;;;;;;;;;;4961512;28;98411;-81
2023/06/08 13:25:42;;;;;;;8.00;3.95;;;;;;;;;;4965107;28;100953;-81
2023/06/08 13:28:09;;;;;;;11.60;4.38;;;;;;;;;;4956399;28;97744;-82
2023/06/08 13:30:36;;;;;;;11.60;4.75;;;;;;;;;;4951656;28;97735;-81
2023/06/08 13:33:02;;;;;;;9.90;4.15;;;;;;;;;;4959209;28;98479;-82
2023/06/08 13:35:30;;;;;;;11.77;4.85;;;;;;;;;;4966392;28;98497;-81
2023/06/08 13:37:57;;;;;;;18.35;4.55;;;;;;;;;;4972347;28;99188;-81
2023/06/08 13:40:24;;;;;;;12.57;4.60;;;;;;;;;;4936289;28;98461;-81
2023/06/08 13:42:51;;;;;;;11.30;3.80;;;;;;;;;;4955621;28;100239;-81
2023/06/08 13:45:20;;;;;;;17.55;3.92;;;;;;;;;;4957067;28;98305;-81
2023/06/08 13:47:48;;;;;;;15.57;3.80;;;;;;;;;;4962045;28;98388;-82
2023/06/08 13:50:14;;;;;;;12.23;4.15;;;;;;;;;;4948890;28;99751;-82
2023/06/08 13:52:41;;;;;;;10.95;3.75;;;;;;;;;;4948509;28;100808;-82
2023/06/08 13:55:08;;;;;;;12.52;5.03;;;;;;;;;;4962694;28;97873;-83
2023/06/08 13:57:34;;;;;;;20.65;4.38;;;;;;;;;;4947182;28;99645;-83
2023/06/08 14:00:02;;;;;;;13.30;4.22;;;;;;;;;;4956486;28;98484;-83
2023/06/08 14:02:37;;;;;;;6.03;3.97;;;;;;;;;;4957100;28;99059;-83
2023/06/08 14:05:05;;;;;;;11.25;4.15;;;;;;;;;;4961437;28;100788;-83
2023/06/08 14:07:32;;;;;;;14.40;4.22;;;;;;;;;;4960737;28;97912;-83
2023/06/08 14:09:59;;;;;;;10.43;3.97;;;;;;;;;;4961414;28;98456;-83
2023/06/08 14:12:26;;;;;;;10.23;4.22;;;;;;;;;;4934568;28;98646;-82
2023/06/08 14:14:52;;;;;;;7.50;3.00;;;;;;;;;;4951940;28;98525;-83
2023/06/08 14:17:19;;;;;;;8.95;3.22;;;;;;;;;;4963436;28;98569;-83
2023/06/08 14:19:46;;;;;;;13.13;4.00;;;;;;;;;;4956018;28;99729;-83
2023/06/08 14:22:13;;;;;;;12.38;3.78;;;;;;;;;;4954445;28;98522;-83
2023/06/08 14:24:40;;;;;;;7.68;3.33;;;;;;;;;;4969232;28;98093;-83
2023/06/08 14:27:07;;;;;;;8.55;3.55;;;;;;;;;;4951696;28;99057;-83
2023/06/08 14:29:33;;;;;;;7.68;3.50;;;;;;;;;;4961387;28;101063;-83